M I D A S
Marine Information and Data Acquisition System
Tripno 901 of the Zeeleeuw from 2005-05-17 07:33:26 to 2005-05-17 10:59:46
Back to CruiseResearch ActivitiesStationsMapUnderway DataData graphs

EquipmentUnitsComment
TimeDGPSUTC
LatitudeDGPSDM.mWGS84
LongitudeDGPSDM.mWGS84
HeadingGyrodeg 
SOGDGPSknotsSpeed over ground
COGDGPSdegCourse over ground
DepthEcho soundermeters200 kHz
Missing or incorrect values are displayed as -999
Navigation data collected by the RV Zeeleeuw from 2005-05-17 07:28:40 to 2005-05-17 11:10:10
                                                                                    Next 1000 lines
Time Latitude Longitude Heading SOG COG Depth
2005-05-17 07:28:50 51°13.596 2°56.098 114.8 1 288 8.5
2005-05-17 07:28:54 51°13.596 2°56.096 115.1 1.1 289 8.5
2005-05-17 07:29:00 51°13.597 2°56.092 115.7 1.1 289 8.5
2005-05-17 07:29:04 51°13.598 2°56.089 116.7 1.8 292 8.9
2005-05-17 07:29:10 51°13.6 2°56.083 118 2.2 295 -999
2005-05-17 07:29:15 51°13.602 2°56.078 119.3 2.3 296 -999
2005-05-17 07:29:20 51°13.603 2°56.073 120.1 2.6 298 -999
2005-05-17 07:29:26 51°13.605 2°56.067 120.3 2.6 298 -999
2005-05-17 07:29:30 51°13.608 2°56.061 120.3 2.9 299 -999
2005-05-17 07:29:35 51°13.609 2°56.056 120.4 2.9 299 -999
2005-05-17 07:29:40 51°13.612 2°56.049 120.9 2.9 299 -999
2005-05-17 07:29:45 51°13.614 2°56.042 121 2.9 299 -999
2005-05-17 07:29:50 51°13.617 2°56.034 121 3.7 299 -999
2005-05-17 07:29:55 51°13.62 2°56.027 120.7 3.9 299 -999
2005-05-17 07:30:00 51°13.622 2°56.019 120.4 3.9 299 -999
2005-05-17 07:30:06 51°13.625 2°56.01 119.8 3.9 299 -999
2005-05-17 07:30:10 51°13.627 2°56.002 119.2 4.2 296 -999
2005-05-17 07:30:15 51°13.63 2°55.993 118.9 4.3 295 -999
2005-05-17 07:30:20 51°13.633 2°55.985 118.9 4.3 296 -999
2005-05-17 07:30:26 51°13.636 2°55.975 118.9 4.4 295 -999
2005-05-17 07:30:30 51°13.638 2°55.967 119.2 4.4 295 -999
2005-05-17 07:30:35 51°13.641 2°55.958 119.7 4.5 295 -999
2005-05-17 07:30:40 51°13.644 2°55.949 120.4 4.6 296 -999
2005-05-17 07:30:46 51°13.647 2°55.938 121 4.7 298 -999
2005-05-17 07:30:50 51°13.65 2°55.93 122 4.7 298 -999
2005-05-17 07:30:55 51°13.653 2°55.921 123.2 4.7 298 -999
2005-05-17 07:31:00 51°13.656 2°55.913 124.1 4.7 298 -999
2005-05-17 07:31:05 51°13.659 2°55.904 124.7 4.7 298 -999
2005-05-17 07:31:10 51°13.662 2°55.894 125 4.6 300 -999
2005-05-17 07:31:15 51°13.666 2°55.886 125.5 4.6 301 -999
2005-05-17 07:31:20 51°13.669 2°55.878 126.4 4.6 302 -999
2005-05-17 07:31:25 51°13.672 2°55.869 127.1 4.6 302 -999
2005-05-17 07:31:30 51°13.676 2°55.86 128.1 4.6 302 -999
2005-05-17 07:31:35 51°13.679 2°55.852 129.1 4.5 305 -999
2005-05-17 07:31:40 51°13.683 2°55.845 129.8 4.5 305 -999
2005-05-17 07:31:45 51°13.687 2°55.836 130.3 4.5 306 -999
2005-05-17 07:31:50 51°13.691 2°55.828 130.6 4.6 307 -999
2005-05-17 07:31:55 51°13.694 2°55.82 131.2 4.6 307 -999
2005-05-17 07:32:00 51°13.698 2°55.812 132 4.6 307 -999
2005-05-17 07:32:05 51°13.703 2°55.803 132.9 4.8 309 -999
2005-05-17 07:32:10 51°13.707 2°55.795 134.2 4.8 309 -999
2005-05-17 07:32:14 51°13.711 2°55.788 134.9 4.9 310 -999
2005-05-17 07:32:20 51°13.716 2°55.779 135.7 4.9 311 -999
2005-05-17 07:32:25 51°13.721 2°55.771 136.7 4.9 312 -999
2005-05-17 07:32:30 51°13.726 2°55.763 138 5 313 -999
2005-05-17 07:32:35 51°13.731 2°55.755 139 5 314 -999
2005-05-17 07:32:40 51°13.735 2°55.747 140.4 5 316 -999
2005-05-17 07:32:45 51°13.741 2°55.74 141.8 5 317 -999
2005-05-17 07:32:50 51°13.746 2°55.732 143.6 5 318 -999
2005-05-17 07:32:55 51°13.751 2°55.726 145.3 5.1 321 -999
2005-05-17 07:33:00 51°13.756 2°55.719 147 5.1 321 -999
2005-05-17 07:33:05 51°13.762 2°55.713 148.2 5 322 5.4
2005-05-17 07:33:10 51°13.768 2°55.706 149.2 5 322 -999
2005-05-17 07:33:15 51°13.774 2°55.7 149.9 4.9 325 -999
2005-05-17 07:33:20 51°13.779 2°55.693 150.5 4.9 326 -999
2005-05-17 07:33:25 51°13.785 2°55.688 151.6 4.9 326 -999
2005-05-17 07:33:30 51°13.791 2°55.681 152.6 5 327 -999
2005-05-17 07:33:35 51°13.797 2°55.676 153.8 5 328 -999
2005-05-17 07:33:40 51°13.802 2°55.671 155.7 4.9 330 -999
2005-05-17 07:33:45 51°13.809 2°55.666 157.2 4.9 330 -999
2005-05-17 07:33:50 51°13.815 2°55.662 159.1 4.8 332 -999
2005-05-17 07:33:55 51°13.82 2°55.657 161.6 4.7 336 -999
2005-05-17 07:34:00 51°13.826 2°55.654 164.7 4.6 338 -999
2005-05-17 07:34:05 51°13.832 2°55.65 167.6 4.6 339 -999
2005-05-17 07:34:10 51°13.838 2°55.648 170.4 4.5 342 -999
2005-05-17 07:34:15 51°13.844 2°55.646 172.7 4.5 347 -999
2005-05-17 07:34:20 51°13.85 2°55.644 175.6 4.4 349 -999
2005-05-17 07:34:25 51°13.856 2°55.643 178.2 4.4 349 -999
2005-05-17 07:34:30 51°13.862 2°55.642 180.8 4.4 354 -999
2005-05-17 07:34:35 51°13.868 2°55.642 183.6 4.4 357 -999
2005-05-17 07:34:40 51°13.874 2°55.642 186.1 4.4 357 -999
2005-05-17 07:34:46 51°13.881 2°55.642 188.8 4.3 2 -999
2005-05-17 07:34:50 51°13.886 2°55.643 191.3 4.3 2 -999
2005-05-17 07:34:54 51°13.891 2°55.644 193.8 4.3 7 -999
2005-05-17 07:35:00 51°13.897 2°55.646 197 4.3 9 -999
2005-05-17 07:35:05 51°13.903 2°55.648 199.2 4.2 12 -999
2005-05-17 07:35:10 51°13.909 2°55.65 201.9 4.2 12 -999
2005-05-17 07:35:15 51°13.913 2°55.653 204.6 4.2 12 -999
2005-05-17 07:35:20 51°13.918 2°55.656 206.9 4.2 12 -999
2005-05-17 07:35:25 51°13.922 2°55.658 209 4.2 12 -999
2005-05-17 07:35:31 51°13.927 2°55.661 211 3.1 22 -999
2005-05-17 07:35:34 51°13.929 2°55.662 212.7 3.1 22 5
2005-05-17 07:35:40 51°13.931 2°55.664 215.5 2.1 19 -999
2005-05-17 07:35:44 51°13.932 2°55.664 218.9 1 16 5
2005-05-17 07:35:50 51°13.932 2°55.662 223.8 0.7 1 -999
2005-05-17 07:35:54 51°13.931 2°55.66 230.3 0.9 255 11.8
2005-05-17 07:36:00 51°13.931 2°55.658 238.3 1.2 254 11.8
2005-05-17 07:36:04 51°13.93 2°55.651 245.3 1.6 256 4.8
2005-05-17 07:36:10 51°13.929 2°55.643 254 2.2 257 11.7
2005-05-17 07:36:14 51°13.93 2°55.637 262.8 3.1 265 11.8
2005-05-17 07:36:20 51°13.931 2°55.627 271.6 3.4 272 11.8
2005-05-17 07:36:24 51°13.932 2°55.62 280.6 3.4 272 12
2005-05-17 07:36:30 51°13.936 2°55.609 289.5 3.4 272 12.2
2005-05-17 07:36:35 51°13.94 2°55.599 295.9 4.8 296 12.4
2005-05-17 07:36:40 51°13.944 2°55.589 304.2 4.8 296 12.1
2005-05-17 07:36:45 51°13.95 2°55.579 310.2 4.8 296 11.7
2005-05-17 07:36:50 51°13.956 2°55.57 315.1 6 313 11.9
2005-05-17 07:36:54 51°13.962 2°55.561 319.4 6.4 316 11.5
2005-05-17 07:37:00 51°13.97 2°55.55 321.6 6.4 316 11.4
2005-05-17 07:37:05 51°13.977 2°55.54 323.4 6.4 316 11.4
2005-05-17 07:37:10 51°13.986 2°55.53 325.1 7.2 321 11.5
2005-05-17 07:37:14 51°13.993 2°55.521 326.7 7.5 323 11.5
2005-05-17 07:37:20 51°14.003 2°55.51 327.6 7.5 323 11.5
2005-05-17 07:37:24 51°14.01 2°55.501 328.2 7.5 323 11.3
2005-05-17 07:37:30 51°14.023 2°55.488 329.5 8.3 327 11.1
2005-05-17 07:37:35 51°14.032 2°55.479 330.8 8.4 327 10.8
2005-05-17 07:37:40 51°14.042 2°55.47 333.3 8.4 327 10.6
2005-05-17 07:37:44 51°14.051 2°55.463 335.3 8.4 327 11.8
2005-05-17 07:37:50 51°14.064 2°55.451 335.7 8.9 331 11.8
2005-05-17 07:37:54 51°14.073 2°55.443 335.7 9 331 11.9
2005-05-17 07:38:00 51°14.086 2°55.434 337.3 9 331 12
2005-05-17 07:38:04 51°14.097 2°55.427 339.9 9.1 336 11.8
2005-05-17 07:38:10 51°14.111 2°55.418 341.5 9.2 337 11.9
2005-05-17 07:38:14 51°14.12 2°55.411 342 9.2 337 11.9
2005-05-17 07:38:20 51°14.133 2°55.403 342.3 9.2 338 11.9
2005-05-17 07:38:25 51°14.145 2°55.394 342.2 9.2 338 11.9
2005-05-17 07:38:30 51°14.157 2°55.386 341.8 9.4 336 11.9
2005-05-17 07:38:34 51°14.168 2°55.377 341.3 9.4 336 11.9
2005-05-17 07:38:40 51°14.182 2°55.365 339.6 9.5 334 -999
2005-05-17 07:38:44 51°14.19 2°55.358 336.7 9.7 331 12.5
2005-05-17 07:38:50 51°14.204 2°55.344 334.5 9.8 330 11.9
2005-05-17 07:38:54 51°14.214 2°55.334 333.1 9.9 328 12
2005-05-17 07:39:00 51°14.227 2°55.32 332.2 9.9 327 11.9
2005-05-17 07:39:04 51°14.236 2°55.31 330.9 9.9 327 12.2
2005-05-17 07:39:10 51°14.25 2°55.293 329.7 9.9 327 11.7
2005-05-17 07:39:14 51°14.259 2°55.281 328.5 9.9 327 11.9
2005-05-17 07:39:20 51°14.271 2°55.265 325.4 9.9 327 11.7
2005-05-17 07:39:24 51°14.278 2°55.251 322.2 10.3 315 11.7
2005-05-17 07:39:30 51°14.29 2°55.23 318.2 10.3 313 11.7
2005-05-17 07:39:34 51°14.298 2°55.213 314.5 10.3 313 11.6
2005-05-17 07:39:40 51°14.308 2°55.192 313.1 10.3 313 11.7
2005-05-17 07:39:45 51°14.317 2°55.172 312 11 307 11.5
2005-05-17 07:39:50 51°14.327 2°55.15 311.4 11 307 11.5
2005-05-17 07:39:54 51°14.334 2°55.133 310.6 11.3 305 11.5
2005-05-17 07:40:00 51°14.343 2°55.111 309.8 11.4 304 11.5
2005-05-17 07:40:04 51°14.351 2°55.094 308.9 11.4 304 11.6
2005-05-17 07:40:10 51°14.36 2°55.068 308.3 11.5 302 11.5
2005-05-17 07:40:15 51°14.368 2°55.046 306.2 11.3 301 11.6
2005-05-17 07:40:20 51°14.375 2°55.023 304.1 11.6 298 11.5
2005-05-17 07:40:24 51°14.381 2°55.004 301.6 11.6 298 11.5
2005-05-17 07:40:30 51°14.389 2°54.976 299 11.8 295 11.5
2005-05-17 07:40:35 51°14.396 2°54.953 298.3 11.8 295 11.6
2005-05-17 07:40:40 51°14.402 2°54.927 298.3 11.8 294 11.5
2005-05-17 07:40:45 51°14.409 2°54.902 297.1 11.8 294 11.4
2005-05-17 07:40:50 51°14.415 2°54.877 295 12.4 291 12
2005-05-17 07:40:54 51°14.42 2°54.853 294.5 12.3 291 12
2005-05-17 07:41:00 51°14.426 2°54.825 294.1 12.3 291 11.6
2005-05-17 07:41:05 51°14.431 2°54.8 292.1 12.3 288 11.7
2005-05-17 07:41:10 51°14.436 2°54.773 289.8 12.2 285 12.1
2005-05-17 07:41:14 51°14.439 2°54.749 287.4 12.2 283 12.1
2005-05-17 07:41:20 51°14.441 2°54.72 283.3 12.2 283 12
2005-05-17 07:41:24 51°14.443 2°54.699 280.9 12.2 279 11.8
2005-05-17 07:41:30 51°14.445 2°54.667 280.4 12.1 276 11.9
2005-05-17 07:41:34 51°14.446 2°54.643 278.9 12.1 276 11.8
2005-05-17 07:41:40 51°14.447 2°54.613 276.4 12.1 273 11.9
2005-05-17 07:41:45 51°14.447 2°54.587 275.6 12.2 274 12
2005-05-17 07:41:50 51°14.448 2°54.557 275 12.1 269 12
2005-05-17 07:41:55 51°14.447 2°54.534 273.9 12.1 269 11.5
2005-05-17 07:41:58 51°14.446 2°54.518 270.7 12.1 266 11.6
2005-05-17 07:42:04 51°14.443 2°54.486 267.1 12 261 12
2005-05-17 07:42:10 51°14.439 2°54.452 264.5 12 261 11.6
2005-05-17 07:42:14 51°14.437 2°54.431 263.1 12 261 11.5
2005-05-17 07:42:20 51°14.431 2°54.403 260.9 12 261 11.6
2005-05-17 07:42:24 51°14.428 2°54.382 258 12 261 11.5
2005-05-17 07:42:30 51°14.42 2°54.349 256 12.1 253 11.4
2005-05-17 07:42:34 51°14.416 2°54.329 254.3 12.1 250 11.3
2005-05-17 07:42:38 51°14.411 2°54.309 253.3 12.2 251 11.2
2005-05-17 07:42:44 51°14.405 2°54.277 252.4 12.4 252 11.2
2005-05-17 07:42:50 51°14.397 2°54.246 252.3 12.5 248 11.2
2005-05-17 07:42:54 51°14.392 2°54.225 252.1 12.5 248 11.2
2005-05-17 07:43:00 51°14.386 2°54.197 252.1 12.4 249 11.2
2005-05-17 07:43:05 51°14.379 2°54.171 252 12.4 249 11.1
2005-05-17 07:43:10 51°14.374 2°54.144 251.1 12.7 248 11.1
2005-05-17 07:43:15 51°14.366 2°54.119 251.8 12.7 246 11.1
2005-05-17 07:43:20 51°14.361 2°54.092 250.6 12.7 246 11.1
2005-05-17 07:43:24 51°14.354 2°54.072 251.1 12.6 245 11.1
2005-05-17 07:43:30 51°14.346 2°54.041 248.9 12.8 248 11.1
2005-05-17 07:43:35 51°14.337 2°54.016 248.5 12.8 248 11.1
2005-05-17 07:43:40 51°14.33 2°53.991 246.5 12.7 244 11.1
2005-05-17 07:43:44 51°14.324 2°53.971 246.6 12.7 245 11.2
2005-05-17 07:43:50 51°14.314 2°53.941 245.8 12.8 243 11.1
2005-05-17 07:43:55 51°14.306 2°53.916 245.7 12.8 243 11.2
2005-05-17 07:44:00 51°14.298 2°53.891 246.1 12.7 242 11.1
2005-05-17 07:44:05 51°14.291 2°53.865 245.3 12.8 243 11
2005-05-17 07:44:10 51°14.282 2°53.84 246.7 12.8 243 11
2005-05-17 07:44:14 51°14.276 2°53.816 245.7 12.8 244 11.1
2005-05-17 07:44:20 51°14.267 2°53.789 246.7 12.7 244 11.1
2005-05-17 07:44:24 51°14.261 2°53.769 246.8 12.8 245 11.1
2005-05-17 07:44:30 51°14.25 2°53.738 246.7 12.8 245 11
2005-05-17 07:44:34 51°14.244 2°53.717 245.1 12.9 242 11.1
2005-05-17 07:44:40 51°14.234 2°53.69 245.5 12.9 242 11.1
2005-05-17 07:44:45 51°14.226 2°53.665 244.1 12.9 243 11.2
2005-05-17 07:44:50 51°14.216 2°53.637 244.2 12.9 243 11.1
2005-05-17 07:44:55 51°14.209 2°53.615 244.5 12.9 241 11.1
2005-05-17 07:45:00 51°14.2 2°53.59 244.5 12.9 241 11.2
2005-05-17 07:45:05 51°14.192 2°53.565 243.7 12.9 241 11.1
2005-05-17 07:45:10 51°14.183 2°53.541 244.2 12.9 239 11.2
2005-05-17 07:45:15 51°14.175 2°53.515 243.5 12.8 242 11.3
2005-05-17 07:45:18 51°14.169 2°53.501 243.4 12.7 239 11.3
2005-05-17 07:45:24 51°14.159 2°53.471 243 12.8 241 11.3
2005-05-17 07:45:30 51°14.149 2°53.441 243.5 12.8 242 11.4
2005-05-17 07:45:35 51°14.139 2°53.417 244.3 12.8 242 11.3
2005-05-17 07:45:40 51°14.131 2°53.392 243.3 12.9 239 11.3
2005-05-17 07:45:44 51°14.124 2°53.372 243.8 12.8 240 11.3
2005-05-17 07:45:50 51°14.114 2°53.342 243.6 12.8 240 11.4
2005-05-17 07:45:55 51°14.105 2°53.318 244 12.7 244 11.4
2005-05-17 07:46:00 51°14.097 2°53.293 242.8 12.8 237 11.3
2005-05-17 07:46:03 51°14.091 2°53.275 244.4 12.9 244 11.3
2005-05-17 07:46:10 51°14.08 2°53.243 243.7 12.8 242 11.4
2005-05-17 07:46:14 51°14.071 2°53.222 244.1 12.8 241 11.3
2005-05-17 07:46:20 51°14.063 2°53.193 244.2 12.8 244 11.6
2005-05-17 07:46:24 51°14.055 2°53.175 243.3 12.8 238 11.4
2005-05-17 07:46:30 51°14.043 2°53.141 242.8 12.8 238 11.4
2005-05-17 07:46:34 51°14.037 2°53.121 244.4 12.8 238 11.7
2005-05-17 07:46:40 51°14.027 2°53.094 244.3 12.8 242 11.5
2005-05-17 07:46:44 51°14.021 2°53.073 244.5 13 244 11.6
2005-05-17 07:46:50 51°14.009 2°53.042 245.9 13 244 11.7
2005-05-17 07:46:54 51°14.001 2°53.022 244 13 244 11.6
2005-05-17 07:47:00 51°13.991 2°52.996 241.6 12.9 237 11.6
2005-05-17 07:47:04 51°13.984 2°52.977 240.9 12.7 238 11.7
2005-05-17 07:47:10 51°13.97 2°52.947 240.2 13 233 11.6
2005-05-17 07:47:14 51°13.963 2°52.926 238.7 12.8 241 11.8
2005-05-17 07:47:20 51°13.95 2°52.904 240.7 12.5 239 11.6
2005-05-17 07:47:24 51°13.944 2°52.883 236.1 12.8 228 11.6
2005-05-17 07:47:30 51°13.931 2°52.856 240.9 12.8 234 11.6
2005-05-17 07:47:35 51°13.922 2°52.832 238.2 12.5 235 11.8
2005-05-17 07:47:40 51°13.91 2°52.81 237 12.8 233 11.9
2005-05-17 07:47:45 51°13.901 2°52.787 237.6 12.9 240 11.9
2005-05-17 07:47:50 51°13.89 2°52.764 237.2 12.9 229 11.8
2005-05-17 07:47:54 51°13.882 2°52.742 237.6 12.8 242 11.8
2005-05-17 07:48:00 51°13.87 2°52.718 238.6 12.6 231 11.8
2005-05-17 07:48:05 51°13.861 2°52.694 238.2 12.6 231 11.9
2005-05-17 07:48:10 51°13.848 2°52.669 239.1 12.9 232 11.7
2005-05-17 07:48:15 51°13.841 2°52.647 236.9 12.9 232 11.8
2005-05-17 07:48:20 51°13.83 2°52.626 239.3 12.8 240 11.8
2005-05-17 07:48:24 51°13.822 2°52.606 237.6 13.1 236 11.7
2005-05-17 07:48:30 51°13.81 2°52.578 240.4 12.7 239 11.9
2005-05-17 07:48:35 51°13.799 2°52.556 240.9 12.5 229 11.8
2005-05-17 07:48:40 51°13.789 2°52.532 235.6 12.5 229 11.8
2005-05-17 07:48:45 51°13.778 2°52.51 238.7 12.8 235 11.8
2005-05-17 07:48:50 51°13.769 2°52.487 237.7 12.6 234 12
2005-05-17 07:48:55 51°13.757 2°52.465 237.6 12.6 234 12
2005-05-17 07:49:00 51°13.748 2°52.44 235.9 13 236 11.9
2005-05-17 07:49:05 51°13.737 2°52.418 238.7 12.9 239 11.9
2005-05-17 07:49:10 51°13.728 2°52.393 240.2 12.9 239 11.9
2005-05-17 07:49:14 51°13.72 2°52.371 242.5 12.8 240 12
2005-05-17 07:49:20 51°13.71 2°52.344 242.2 12.8 240 12
2005-05-17 07:49:25 51°13.702 2°52.319 243.1 13 239 12.1
2005-05-17 07:49:30 51°13.691 2°52.293 245.2 12.6 239 11.9
2005-05-17 07:49:35 51°13.684 2°52.271 243.4 12.7 236 11.9
2005-05-17 07:49:40 51°13.675 2°52.247 243.5 12.7 240 11.9
2005-05-17 07:49:45 51°13.665 2°52.223 243.8 12.7 240 11.9
2005-05-17 07:49:50 51°13.657 2°52.198 243.3 12.7 241 12.1
2005-05-17 07:49:55 51°13.647 2°52.174 243.8 12.7 239 11.9
2005-05-17 07:49:59 51°13.64 2°52.151 242.4 12.7 239 12.1
2005-05-17 07:50:04 51°13.63 2°52.128 245.3 12.9 245 12
2005-05-17 07:50:10 51°13.621 2°52.1 244.2 12.9 245 11.9
2005-05-17 07:50:14 51°13.612 2°52.079 244.5 12.8 240 11.9
2005-05-17 07:50:20 51°13.604 2°52.051 244 12.8 238 12.1
2005-05-17 07:50:25 51°13.593 2°52.025 243.8 12.8 238 12
2005-05-17 07:50:30 51°13.586 2°52.001 241.8 13.3 241 12
2005-05-17 07:50:34 51°13.579 2°51.979 244.5 12.9 246 12.2
2005-05-17 07:50:40 51°13.569 2°51.952 245.3 12.8 239 12.1
2005-05-17 07:50:45 51°13.56 2°51.924 243.6 12.8 239 12.1
2005-05-17 07:50:50 51°13.551 2°51.9 245.7 12.8 239 12
2005-05-17 07:50:54 51°13.545 2°51.879 242.8 13.1 238 12
2005-05-17 07:51:00 51°13.534 2°51.854 245.2 12.5 239 12.1
2005-05-17 07:51:05 51°13.526 2°51.829 242.5 12.5 235 12.1
2005-05-17 07:51:10 51°13.516 2°51.805 242.1 12.9 239 12.1
2005-05-17 07:51:14 51°13.508 2°51.783 242.3 12.8 239 12.1
2005-05-17 07:51:20 51°13.498 2°51.755 242.9 12.8 239 12.1
2005-05-17 07:51:24 51°13.491 2°51.736 244.7 13 241 12.2
2005-05-17 07:51:30 51°13.48 2°51.704 243.7 12.7 239 12.2
2005-05-17 07:51:34 51°13.472 2°51.685 243.1 12.6 240 12.2
2005-05-17 07:51:40 51°13.462 2°51.657 243.1 13.1 239 12.2
2005-05-17 07:51:45 51°13.453 2°51.633 244.4 13.1 239 12.2
2005-05-17 07:51:50 51°13.444 2°51.608 243 13 238 12.2
2005-05-17 07:51:54 51°13.437 2°51.587 245 13 238 12.2
2005-05-17 07:52:00 51°13.427 2°51.559 242.4 12.8 233 12.2
2005-05-17 07:52:05 51°13.418 2°51.535 242.4 12.8 233 12.2
2005-05-17 07:52:09 51°13.409 2°51.514 244.8 12.6 236 12.2
2005-05-17 07:52:14 51°13.4 2°51.489 240.9 12.9 236 12.1
2005-05-17 07:52:20 51°13.39 2°51.463 243.6 13.1 242 12.2
2005-05-17 07:52:24 51°13.384 2°51.443 243.3 12.9 241 12.2
2005-05-17 07:52:30 51°13.372 2°51.413 242.5 12.9 241 12.3
2005-05-17 07:52:35 51°13.363 2°51.389 243.7 12.9 241 12.3
2005-05-17 07:52:40 51°13.354 2°51.364 242.9 12.9 241 12.2
2005-05-17 07:52:44 51°13.347 2°51.344 244.1 13.1 241 12.2
2005-05-17 07:52:50 51°13.337 2°51.315 245.1 13 241 12.4
2005-05-17 07:52:54 51°13.329 2°51.294 243.9 13 241 12.3
2005-05-17 07:53:00 51°13.319 2°51.265 242.6 13 241 12.2
2005-05-17 07:53:05 51°13.31 2°51.242 244.4 12.8 242 12.3
2005-05-17 07:53:10 51°13.301 2°51.217 243.7 12.8 237 12.3
2005-05-17 07:53:14 51°13.293 2°51.196 243 12.7 243 12.4
2005-05-17 07:53:19 51°13.284 2°51.171 243.5 12.6 237 12.3
2005-05-17 07:53:25 51°13.273 2°51.145 242.3 12.6 237 12.3
2005-05-17 07:53:30 51°13.264 2°51.12 243.8 12.7 242 12.3
2005-05-17 07:53:34 51°13.256 2°51.099 244.6 12.8 237 12.4
2005-05-17 07:53:40 51°13.245 2°51.072 241.9 12.8 237 12.4
2005-05-17 07:53:45 51°13.237 2°51.047 242.9 12.8 237 12.5
2005-05-17 07:53:50 51°13.227 2°51.023 243.8 12.5 236 12.3
2005-05-17 07:53:54 51°13.22 2°51 241.9 12.5 236 12.3
2005-05-17 07:54:00 51°13.209 2°50.975 245.1 12.7 241 12.5
2005-05-17 07:54:05 51°13.2 2°50.949 243 12.7 237 12.4
2005-05-17 07:54:10 51°13.192 2°50.925 243.7 12.9 241 12.4
2005-05-17 07:54:14 51°13.183 2°50.904 244.4 12.6 237 12.5
2005-05-17 07:54:20 51°13.173 2°50.877 242.6 12.9 239 12.4
2005-05-17 07:54:25 51°13.164 2°50.853 243.3 12.7 240 12.4
2005-05-17 07:54:30 51°13.154 2°50.83 242.6 12.6 239 12.4
2005-05-17 07:54:35 51°13.146 2°50.804 242 12.9 241 12.4
2005-05-17 07:54:40 51°13.135 2°50.782 243.7 12.9 241 12.3
2005-05-17 07:54:44 51°13.129 2°50.761 241.9 12.8 240 12.4
2005-05-17 07:54:50 51°13.117 2°50.733 242.3 12.8 236 12.4
2005-05-17 07:54:54 51°13.109 2°50.711 241.8 13.1 239 12.5
2005-05-17 07:55:00 51°13.099 2°50.684 243.6 12.7 242 12.6
2005-05-17 07:55:04 51°13.091 2°50.665 243.8 13.2 236 12.4
2005-05-17 07:55:10 51°13.082 2°50.634 243.6 13.2 236 12.6
2005-05-17 07:55:15 51°13.071 2°50.611 246.1 12.8 243 12.4
2005-05-17 07:55:20 51°13.064 2°50.585 243 13 246 12.4
2005-05-17 07:55:25 51°13.054 2°50.562 245.2 12.9 238 12.5
2005-05-17 07:55:30 51°13.045 2°50.536 243.1 13 241 12.4
2005-05-17 07:55:35 51°13.035 2°50.509 243.4 12.9 239 12.6
2005-05-17 07:55:40 51°13.027 2°50.487 244.2 12.9 239 12.6
2005-05-17 07:55:45 51°13.019 2°50.462 244.9 12.9 239 12.6
2005-05-17 07:55:50 51°13.009 2°50.438 244.3 12.7 238 12.4
2005-05-17 07:55:54 51°13.002 2°50.416 243.1 12.9 242 12.6
2005-05-17 07:56:00 51°12.992 2°50.389 243.7 12.9 242 12.6
2005-05-17 07:56:04 51°12.984 2°50.371 243.8 12.6 240 12.4
2005-05-17 07:56:10 51°12.974 2°50.34 241.9 13 237 12.6
2005-05-17 07:56:14 51°12.965 2°50.319 244.7 13 237 12.6
2005-05-17 07:56:20 51°12.955 2°50.291 242.6 13 241 12.6
2005-05-17 07:56:25 51°12.945 2°50.269 243.8 12.9 242 12.6
2005-05-17 07:56:29 51°12.937 2°50.245 241.9 13 242 12.6
2005-05-17 07:56:35 51°12.926 2°50.216 242.6 13 242 12.6
2005-05-17 07:56:40 51°12.918 2°50.195 242.9 12.7 242 12.7
2005-05-17 07:56:44 51°12.91 2°50.175 243.2 12.7 242 12.6
2005-05-17 07:56:50 51°12.9 2°50.145 243 13 242 12.6
2005-05-17 07:56:55 51°12.891 2°50.121 244.7 13 242 12.6
2005-05-17 07:57:00 51°12.882 2°50.097 243.6 13 242 12.7
2005-05-17 07:57:04 51°12.874 2°50.078 243 12.9 238 12.7
2005-05-17 07:57:10 51°12.863 2°50.047 243.5 12.9 238 12.7
2005-05-17 07:57:15 51°12.855 2°50.026 243.3 12.6 238 12.8
2005-05-17 07:57:20 51°12.844 2°50.002 242.3 12.8 236 12.5
2005-05-17 07:57:25 51°12.836 2°49.977 241 12.8 236 12.6
2005-05-17 07:57:30 51°12.826 2°49.953 243.2 12.8 238 12.6
2005-05-17 07:57:34 51°12.819 2°49.932 242.6 12.6 238 12.7
2005-05-17 07:57:40 51°12.808 2°49.905 242.4 12.7 238 12.6
2005-05-17 07:57:44 51°12.802 2°49.885 242 13.1 241 12.7
2005-05-17 07:57:50 51°12.788 2°49.855 245.1 13.1 241 12.6
2005-05-17 07:57:54 51°12.782 2°49.834 242.2 13 236 12.5
2005-05-17 07:58:00 51°12.771 2°49.809 243.4 12.9 242 12.7
2005-05-17 07:58:04 51°12.762 2°49.787 240.4 12.9 231 12.6
2005-05-17 07:58:10 51°12.753 2°49.761 243.2 13 239 12.4
2005-05-17 07:58:14 51°12.745 2°49.739 243.8 13 239 12.6
2005-05-17 07:58:20 51°12.734 2°49.713 242 12.7 241 12.5
2005-05-17 07:58:24 51°12.727 2°49.691 242.4 12.9 239 12.7
2005-05-17 07:58:30 51°12.717 2°49.664 243.6 12.7 240 12.7
2005-05-17 07:58:35 51°12.708 2°49.64 243.8 12.7 240 12.7
2005-05-17 07:58:39 51°12.699 2°49.619 244.5 12.6 239 12.8
2005-05-17 07:58:44 51°12.69 2°49.597 241.8 12.9 235 12.7
2005-05-17 07:58:50 51°12.679 2°49.568 243.1 13 240 12.6
2005-05-17 07:58:54 51°12.672 2°49.545 243.1 12.8 238 12.7
2005-05-17 07:59:00 51°12.661 2°49.519 242.4 12.8 238 12.7
2005-05-17 07:59:05 51°12.652 2°49.495 243.5 12.9 240 12.7
2005-05-17 07:59:10 51°12.643 2°49.471 242.8 12.9 239 12.7
2005-05-17 07:59:14 51°12.634 2°49.45 243 12.8 237 12.8
2005-05-17 07:59:20 51°12.624 2°49.423 241.6 12.9 237 12.7
2005-05-17 07:59:24 51°12.616 2°49.404 243 12.8 240 12.8
2005-05-17 07:59:30 51°12.605 2°49.374 241.3 12.9 238 12.7
2005-05-17 07:59:34 51°12.596 2°49.353 242.3 13 241 12.7
2005-05-17 07:59:40 51°12.587 2°49.326 243.3 13 239 12.7
2005-05-17 07:59:44 51°12.579 2°49.304 243.9 12.9 239 12.7
2005-05-17 07:59:50 51°12.568 2°49.277 243.5 12.9 239 12.8
2005-05-17 07:59:54 51°12.56 2°49.255 243.1 12.9 239 12.7
2005-05-17 08:00:00 51°12.549 2°49.228 242.7 13.1 237 12.7
2005-05-17 08:00:05 51°12.539 2°49.202 242.5 13.1 241 12.7
2005-05-17 08:00:10 51°12.532 2°49.178 243.1 12.9 234 12.7
2005-05-17 08:00:14 51°12.523 2°49.157 243 13 240 12.6
2005-05-17 08:00:20 51°12.513 2°49.13 243.3 12.9 240 12.6
2005-05-17 08:00:25 51°12.503 2°49.102 243.6 12.9 240 12.6
2005-05-17 08:00:30 51°12.493 2°49.078 243.8 12.8 239 12.6
2005-05-17 08:00:34 51°12.487 2°49.058 242.8 13 241 12.8
2005-05-17 08:00:40 51°12.476 2°49.031 242.5 13 241 12.7
2005-05-17 08:00:44 51°12.468 2°49.008 242.6 13.2 239 12.7
2005-05-17 08:00:50 51°12.458 2°48.982 244.4 12.8 237 12.7
2005-05-17 08:00:54 51°12.45 2°48.96 243 13.1 240 12.5
2005-05-17 08:01:00 51°12.44 2°48.933 244 13.1 240 12.7
2005-05-17 08:01:05 51°12.431 2°48.908 243.7 12.9 239 12.7
2005-05-17 08:01:10 51°12.422 2°48.883 242.9 12.9 239 12.7
2005-05-17 08:01:14 51°12.412 2°48.862 242.6 13.1 236 12.5
2005-05-17 08:01:20 51°12.403 2°48.834 242.8 13 244 12.7
2005-05-17 08:01:24 51°12.394 2°48.813 243 12.8 240 12.5
2005-05-17 08:01:30 51°12.384 2°48.782 242.8 13.1 243 12.5
2005-05-17 08:01:34 51°12.376 2°48.763 244 13 242 12.5
2005-05-17 08:01:40 51°12.366 2°48.735 242.7 13.1 238 12.5
2005-05-17 08:01:44 51°12.359 2°48.715 243.8 13 241 12.7
2005-05-17 08:01:50 51°12.348 2°48.684 243.3 13 239 12.5
2005-05-17 08:01:54 51°12.34 2°48.662 244.5 13 239 12.7
2005-05-17 08:02:00 51°12.33 2°48.635 244.6 13.1 241 12.7
2005-05-17 08:02:05 51°12.321 2°48.61 242.7 13 239 12.6
2005-05-17 08:02:10 51°12.311 2°48.581 243.8 13 239 12.6
2005-05-17 08:02:14 51°12.303 2°48.562 244.9 13.2 240 12.6
2005-05-17 08:02:20 51°12.294 2°48.534 243.8 13.1 238 12.7
2005-05-17 08:02:25 51°12.283 2°48.506 243.3 13.2 237 12.7
2005-05-17 08:02:30 51°12.276 2°48.483 243 13.5 242 12.6
2005-05-17 08:02:35 51°12.266 2°48.459 245.7 13.5 242 12.7
2005-05-17 08:02:40 51°12.257 2°48.434 242.8 13.5 242 12.7
2005-05-17 08:02:45 51°12.247 2°48.406 243.8 13.3 240 12.7
2005-05-17 08:02:50 51°12.238 2°48.383 244.4 13.3 240 12.5
2005-05-17 08:02:54 51°12.232 2°48.36 243.2 13.1 243 12.7
2005-05-17 08:03:00 51°12.219 2°48.334 244.9 13 245 12.5
2005-05-17 08:03:05 51°12.211 2°48.307 241.6 13.5 242 12.6
2005-05-17 08:03:09 51°12.203 2°48.285 244.4 13.1 237 12.7
2005-05-17 08:03:14 51°12.194 2°48.26 243.6 13 240 12.7
2005-05-17 08:03:20 51°12.184 2°48.232 243.8 13.2 240 12.6
2005-05-17 08:03:24 51°12.175 2°48.211 244.9 13.2 240 12.7
2005-05-17 08:03:30 51°12.165 2°48.182 241.6 13.2 240 12.7
2005-05-17 08:03:34 51°12.156 2°48.161 243.1 13.2 240 12.7
2005-05-17 08:03:40 51°12.147 2°48.133 243.4 13.1 240 12.6
2005-05-17 08:03:45 51°12.137 2°48.108 243.5 13.1 239 12.6
2005-05-17 08:03:50 51°12.129 2°48.083 243.3 13.1 240 12.7
2005-05-17 08:03:55 51°12.119 2°48.058 244.5 13 241 12.6
2005-05-17 08:04:00 51°12.109 2°48.031 243.4 13 239 12.5
2005-05-17 08:04:05 51°12.101 2°48.008 243 13.2 240 12.6
2005-05-17 08:04:10 51°12.09 2°47.985 244.1 13.2 240 12.5
2005-05-17 08:04:15 51°12.082 2°47.959 242.1 13.1 245 12.5
2005-05-17 08:04:20 51°12.072 2°47.934 243.8 13.3 234 12.4
2005-05-17 08:04:25 51°12.063 2°47.909 243.3 13.3 234 12.6
2005-05-17 08:04:30 51°12.053 2°47.886 243.8 13.3 234 12.5
2005-05-17 08:04:34 51°12.045 2°47.862 241.7 13.2 242 12.5
2005-05-17 08:04:40 51°12.033 2°47.836 241.5 13.2 240 12.4
2005-05-17 08:04:45 51°12.023 2°47.812 242.2 13 245 12.4
2005-05-17 08:04:50 51°12.015 2°47.786 241.6 13 245 12.4
2005-05-17 08:04:54 51°12.006 2°47.764 243.8 13.3 246 12.4
2005-05-17 08:05:00 51°11.996 2°47.737 242.7 13 236 12.5
2005-05-17 08:05:04 51°11.987 2°47.715 242.6 13.1 243 12.4
2005-05-17 08:05:10 51°11.977 2°47.684 242.9 13.4 239 12.5
2005-05-17 08:05:15 51°11.966 2°47.664 244.5 13.2 245 12.5
2005-05-17 08:05:20 51°11.958 2°47.637 241.6 13.2 245 12.5
2005-05-17 08:05:24 51°11.95 2°47.615 243.3 13.4 243 12.4
2005-05-17 08:05:30 51°11.94 2°47.585 245.6 12.9 241 12.5
2005-05-17 08:05:35 51°11.93 2°47.563 243.9 12.9 241 12.4
2005-05-17 08:05:40 51°11.922 2°47.538 243.1 12.9 241 12.4
2005-05-17 08:05:44 51°11.913 2°47.517 243.6 13 240 12.5
2005-05-17 08:05:50 51°11.902 2°47.489 242.1 13.3 239 12.4
2005-05-17 08:05:54 51°11.895 2°47.466 242.1 13.4 239 12.3
2005-05-17 08:06:00 51°11.884 2°47.44 244.2 13.4 239 12.3
2005-05-17 08:06:05 51°11.875 2°47.415 242.6 12.9 237 12.2
2005-05-17 08:06:10 51°11.866 2°47.39 243.4 13 241 12.2
2005-05-17 08:06:15 51°11.856 2°47.366 244.4 12.6 238 12.4
2005-05-17 08:06:20 51°11.846 2°47.341 241.2 13 238 12.2
2005-05-17 08:06:24 51°11.839 2°47.318 243.5 13.2 243 12.2
2005-05-17 08:06:30 51°11.827 2°47.29 244.5 13.2 243 12.1
2005-05-17 08:06:34 51°11.82 2°47.269 242.1 13 240 12
2005-05-17 08:06:40 51°11.809 2°47.243 243.4 13.1 240 12.1
2005-05-17 08:06:45 51°11.8 2°47.217 242.6 13.1 240 12
2005-05-17 08:06:50 51°11.791 2°47.192 243.9 13.2 241 12
2005-05-17 08:06:54 51°11.784 2°47.169 243.9 13.1 241 12
2005-05-17 08:07:00 51°11.773 2°47.143 244.4 13.1 241 11.9
2005-05-17 08:07:05 51°11.765 2°47.116 242.9 13.3 240 12
2005-05-17 08:07:10 51°11.754 2°47.092 244.1 13.3 240 12
2005-05-17 08:07:14 51°11.746 2°47.069 242.9 13.5 237 11.9
2005-05-17 08:07:20 51°11.737 2°47.042 244.5 12.8 242 12.1
2005-05-17 08:07:25 51°11.726 2°47.015 243.9 12.8 242 11.9
2005-05-17 08:07:30 51°11.717 2°46.989 242.1 13.6 242 11.8
2005-05-17 08:07:34 51°11.71 2°46.969 244.4 13.2 238 11.9
2005-05-17 08:07:40 51°11.699 2°46.944 244.6 13.2 238 11.9
2005-05-17 08:07:44 51°11.692 2°46.922 241.6 12.8 236 11.7
2005-05-17 08:07:50 51°11.679 2°46.89 243.7 13.4 239 11.7
2005-05-17 08:07:54 51°11.672 2°46.87 243.8 13.4 239 11.7
2005-05-17 08:08:00 51°11.662 2°46.843 243.9 12.8 241 11.7
2005-05-17 08:08:05 51°11.651 2°46.816 243.2 12.8 241 11.8
2005-05-17 08:08:10 51°11.643 2°46.793 242.1 13.3 240 11.7
2005-05-17 08:08:14 51°11.635 2°46.77 243 13.3 239 11.7
2005-05-17 08:08:20 51°11.625 2°46.743 244.1 13.3 239 11.7
2005-05-17 08:08:25 51°11.615 2°46.719 244.2 13.3 239 11.6
2005-05-17 08:08:30 51°11.605 2°46.693 242.4 13.4 239 11.6
2005-05-17 08:08:35 51°11.596 2°46.668 242.5 13.4 239 11.5
2005-05-17 08:08:40 51°11.587 2°46.644 243.5 13.1 240 11.7
2005-05-17 08:08:45 51°11.578 2°46.618 243.1 13 235 11.6
2005-05-17 08:08:50 51°11.569 2°46.592 243.1 13.6 243 11.4
2005-05-17 08:08:55 51°11.56 2°46.567 245.2 13.6 243 11.5
2005-05-17 08:09:00 51°11.55 2°46.543 244.9 13.6 243 11.5
2005-05-17 08:09:04 51°11.543 2°46.522 243 13.2 240 11.4
2005-05-17 08:09:10 51°11.532 2°46.492 243.1 13.2 240 11.5
2005-05-17 08:09:14 51°11.524 2°46.469 243.5 13.2 239 11.5
2005-05-17 08:09:20 51°11.513 2°46.442 244.2 13.1 241 11.4
2005-05-17 08:09:24 51°11.507 2°46.421 244.2 13.2 240 11.4
2005-05-17 08:09:30 51°11.494 2°46.389 243.9 13.2 240 11.4
2005-05-17 08:09:34 51°11.487 2°46.368 242.8 13.3 240 11.4
2005-05-17 08:09:40 51°11.476 2°46.343 245.3 12.9 242 11.5
2005-05-17 08:09:44 51°11.469 2°46.322 241.6 13.1 237 11.3
2005-05-17 08:09:50 51°11.457 2°46.289 243.1 13.4 240 11.3
2005-05-17 08:09:54 51°11.45 2°46.269 244.8 13 241 11.3
2005-05-17 08:10:00 51°11.44 2°46.241 243.9 13 241 11.2
2005-05-17 08:10:04 51°11.434 2°46.221 244.9 13.4 242 11.2
2005-05-17 08:10:10 51°11.422 2°46.189 246 13.2 242 11.4
2005-05-17 08:10:14 51°11.414 2°46.17 242.6 13.2 242 11.2
2005-05-17 08:10:20 51°11.404 2°46.141 243.2 13.2 242 11.1
2005-05-17 08:10:25 51°11.395 2°46.116 243.9 13.3 238 11.2
2005-05-17 08:10:30 51°11.386 2°46.091 244.5 13.3 238 11.1
2005-05-17 08:10:34 51°11.378 2°46.068 244 12.9 239 11.3
2005-05-17 08:10:40 51°11.368 2°46.041 244.5 12.9 239 11.2
2005-05-17 08:10:44 51°11.36 2°46.019 244.5 13 240 11.1
2005-05-17 08:10:50 51°11.349 2°45.992 242.9 13.1 237 11.1
2005-05-17 08:10:54 51°11.341 2°45.97 242 13 240 11.1
2005-05-17 08:11:00 51°11.329 2°45.941 242.4 13 240 11
2005-05-17 08:11:04 51°11.323 2°45.923 242.8 13.1 239 11
2005-05-17 08:11:10 51°11.313 2°45.893 243.8 12.8 240 11
2005-05-17 08:11:14 51°11.304 2°45.872 244.5 12.6 240 11
2005-05-17 08:11:20 51°11.294 2°45.844 241.6 12.6 240 10.8
2005-05-17 08:11:24 51°11.287 2°45.823 244 13.4 243 10.8
2005-05-17 08:11:30 51°11.275 2°45.795 245.3 12.9 239 10.9
2005-05-17 08:11:35 51°11.266 2°45.77 243.5 12.8 238 10.8
2005-05-17 08:11:40 51°11.257 2°45.745 242.8 13.1 240 10.8
2005-05-17 08:11:45 51°11.248 2°45.72 243.1 13.2 239 10.8
2005-05-17 08:11:50 51°11.238 2°45.693 243.9 13 242 10.8
2005-05-17 08:11:54 51°11.23 2°45.673 244.2 12.9 237 10.7
2005-05-17 08:12:00 51°11.22 2°45.645 243.5 13.2 241 10.7
2005-05-17 08:12:04 51°11.214 2°45.622 244.4 13 243 10.8
2005-05-17 08:12:10 51°11.202 2°45.593 245.5 12.9 241 10.8
2005-05-17 08:12:14 51°11.196 2°45.573 243.5 13 243 10.7
2005-05-17 08:12:20 51°11.185 2°45.546 244.5 12.9 238 10.6
2005-05-17 08:12:25 51°11.177 2°45.52 243.5 12.9 238 10.7
2005-05-17 08:12:30 51°11.167 2°45.495 244.1 13.2 237 10.6
2005-05-17 08:12:35 51°11.159 2°45.47 244.9 13.2 237 10.6
2005-05-17 08:12:40 51°11.149 2°45.446 246 12.9 242 10.5
2005-05-17 08:12:45 51°11.141 2°45.419 243.5 13.2 241 10.5
2005-05-17 08:12:50 51°11.132 2°45.395 245.7 13.1 244 10.6
2005-05-17 08:12:54 51°11.124 2°45.372 244.4 13 238 10.5
2005-05-17 08:13:00 51°11.115 2°45.344 244.7 13 244 10.6
2005-05-17 08:13:05 51°11.106 2°45.318 245.2 12.9 241 10.5
2005-05-17 08:13:10 51°11.099 2°45.291 244.2 13.4 240 10.5
2005-05-17 08:13:14 51°11.091 2°45.269 247.3 13.2 246 10.6
2005-05-17 08:13:20 51°11.082 2°45.242 246.8 13.2 246 10.6
2005-05-17 08:13:25 51°11.073 2°45.217 246.5 12.8 247 10.6
2005-05-17 08:13:30 51°11.065 2°45.191 245.9 12.8 247 10.4
2005-05-17 08:13:34 51°11.058 2°45.166 246.5 13.3 248 10.4
2005-05-17 08:13:40 51°11.05 2°45.137 249.1 13.3 248 10.4
2005-05-17 08:13:44 51°11.044 2°45.117 249.2 12.8 247 10.4
2005-05-17 08:13:50 51°11.034 2°45.086 247.4 13.2 243 10.4
2005-05-17 08:13:55 51°11.026 2°45.061 248.6 13 249 10.5
2005-05-17 08:14:00 51°11.019 2°45.034 248.6 12.9 243 10.4
2005-05-17 08:14:04 51°11.012 2°45.01 247.5 13.1 248 10.5
2005-05-17 08:14:10 51°11.004 2°44.982 250.5 13.1 247 10.5
2005-05-17 08:14:14 51°10.998 2°44.957 250.1 13.1 247 10.5
2005-05-17 08:14:20 51°10.991 2°44.928 251.6 13.1 247 10.5
2005-05-17 08:14:24 51°10.986 2°44.906 252.8 13 250 10.5
2005-05-17 08:14:30 51°10.978 2°44.87 252.9 13.1 252 10.6
2005-05-17 08:14:34 51°10.972 2°44.849 254.1 13.2 247 10.5
2005-05-17 08:14:40 51°10.965 2°44.819 253.3 13.2 247 10.5
2005-05-17 08:14:44 51°10.96 2°44.798 253.2 13.2 246 10.6
2005-05-17 08:14:50 51°10.952 2°44.764 252.6 13.3 251 10.4
2005-05-17 08:14:54 51°10.947 2°44.74 252.9 13.3 251 10.5
2005-05-17 08:15:00 51°10.938 2°44.711 253.2 13.1 250 10.5
2005-05-17 08:15:04 51°10.934 2°44.689 251.3 13 245 10.5
2005-05-17 08:15:10 51°10.924 2°44.657 251.5 13.3 246 10.4
2005-05-17 08:15:15 51°10.918 2°44.63 251.8 13.3 246 10.4
2005-05-17 08:15:20 51°10.911 2°44.602 251.1 13.3 246 10.4
2005-05-17 08:15:24 51°10.905 2°44.578 252.3 13.4 252 10.4
2005-05-17 08:15:30 51°10.897 2°44.546 252.2 13.3 247 10.5
2005-05-17 08:15:34 51°10.89 2°44.525 252.2 13.5 241 10.4
2005-05-17 08:15:40 51°10.884 2°44.49 249.7 13.5 241 10.6
2005-05-17 08:15:44 51°10.878 2°44.473 255.1 13.5 241 10.5
2005-05-17 08:15:49 51°10.872 2°44.442 252.3 13.2 247 10.5
2005-05-17 08:15:54 51°10.864 2°44.416 252.8 13.3 245 10.5
2005-05-17 08:15:59 51°10.859 2°44.388 252.4 13.3 245 10.4
2005-05-17 08:16:05 51°10.85 2°44.356 253.3 13.3 245 10.5
2005-05-17 08:16:10 51°10.844 2°44.328 252.8 13.3 245 10.6
2005-05-17 08:16:15 51°10.837 2°44.305 253.5 13 248 10.5
2005-05-17 08:16:19 51°10.832 2°44.28 252.1 13 248 10.5
2005-05-17 08:16:24 51°10.825 2°44.256 251.8 13.5 247 10.4
2005-05-17 08:16:30 51°10.818 2°44.223 253.2 13.4 249 10.6
2005-05-17 08:16:34 51°10.812 2°44.199 252.1 13.2 246 10.5
2005-05-17 08:16:40 51°10.804 2°44.169 252.6 13.3 249 10.5
2005-05-17 08:16:44 51°10.799 2°44.144 253.3 13.3 249 10.5
2005-05-17 08:16:50 51°10.791 2°44.114 253.3 13.3 249 10.5
2005-05-17 08:16:54 51°10.787 2°44.089 252.5 13.3 246 10.5
2005-05-17 08:17:00 51°10.778 2°44.06 253.3 13.1 245 10.5
2005-05-17 08:17:04 51°10.772 2°44.038 251.8 13.1 245 10.4
2005-05-17 08:17:10 51°10.765 2°44.006 251.9 13.2 248 10.5
2005-05-17 08:17:15 51°10.757 2°43.98 252.1 13.2 248 10.4
2005-05-17 08:17:20 51°10.751 2°43.951 251.5 13.2 248 10.3
2005-05-17 08:17:24 51°10.746 2°43.93 252.5 13.4 251 10.4
2005-05-17 08:17:30 51°10.738 2°43.898 253 13.4 251 10.3
2005-05-17 08:17:34 51°10.732 2°43.873 252.3 13.2 249 10.4
2005-05-17 08:17:40 51°10.725 2°43.843 253 13.1 248 10.4
2005-05-17 08:17:45 51°10.718 2°43.816 252.5 13.3 248 10.4
2005-05-17 08:17:50 51°10.711 2°43.789 253.2 13.2 248 10.3
2005-05-17 08:17:55 51°10.705 2°43.761 252.6 13.2 248 10.5
2005-05-17 08:18:00 51°10.697 2°43.735 251.8 13.2 248 10.4
2005-05-17 08:18:05 51°10.692 2°43.708 251.8 13.2 248 10.4
2005-05-17 08:18:10 51°10.684 2°43.681 252.1 13.1 247 10.4
2005-05-17 08:18:14 51°10.678 2°43.657 251.8 13.1 247 10.4
2005-05-17 08:18:20 51°10.67 2°43.627 252.1 13.2 249 10.4
2005-05-17 08:18:24 51°10.665 2°43.606 251.8 13.1 248 10.4
2005-05-17 08:18:30 51°10.656 2°43.571 251.8 13.1 248 10.6
2005-05-17 08:18:34 51°10.65 2°43.55 252.2 13.1 248 10.3
2005-05-17 08:18:40 51°10.644 2°43.519 251.3 13.2 246 10.4
2005-05-17 08:18:45 51°10.636 2°43.493 253 13 249 10.4
2005-05-17 08:18:50 51°10.629 2°43.462 251.8 13.2 246 10.4
2005-05-17 08:18:54 51°10.624 2°43.441 252.7 13 248 10.4
2005-05-17 08:19:00 51°10.615 2°43.413 253.3 13 248 10.3
2005-05-17 08:19:03 51°10.612 2°43.393 250.9 13.1 245 10.3
2005-05-17 08:19:10 51°10.602 2°43.358 252.4 13.4 247 10.3
2005-05-17 08:19:15 51°10.597 2°43.33 252.1 13.4 247 10.4
2005-05-17 08:19:20 51°10.589 2°43.304 253.7 13.2 252 10.4
2005-05-17 08:19:25 51°10.584 2°43.275 252.8 13.3 251 10.4
2005-05-17 08:19:30 51°10.577 2°43.247 253.3 13.3 249 10.3
2005-05-17 08:19:35 51°10.571 2°43.22 253.6 13.4 250 10.3
2005-05-17 08:19:40 51°10.564 2°43.193 254 13.3 250 10.4
2005-05-17 08:19:45 51°10.558 2°43.166 253.2 13 247 10.3
2005-05-17 08:19:50 51°10.549 2°43.14 253.2 13 252 10.2
2005-05-17 08:19:54 51°10.544 2°43.113 250.1 13.5 242 10.2
2005-05-17 08:20:00 51°10.536 2°43.085 253.3 13.5 242 10.2
2005-05-17 08:20:04 51°10.532 2°43.062 253.6 12.9 245 10.4
2005-05-17 08:20:10 51°10.523 2°43.031 251.8 13.2 249 10.4
2005-05-17 08:20:15 51°10.518 2°43.002 252.9 13.2 250 10.3
2005-05-17 08:20:20 51°10.51 2°42.976 253 13.3 248 10.4
2005-05-17 08:20:24 51°10.505 2°42.954 252.3 13.3 249 10.4
2005-05-17 08:20:30 51°10.497 2°42.923 253.6 13 251 10.4
2005-05-17 08:20:34 51°10.492 2°42.897 252 13.1 249 10.3
2005-05-17 08:20:40 51°10.483 2°42.868 252.1 13.3 249 10.3
2005-05-17 08:20:44 51°10.478 2°42.845 251.5 13.5 249 10.3
2005-05-17 08:20:50 51°10.469 2°42.814 252.4 13 247 10.4
2005-05-17 08:20:54 51°10.463 2°42.789 251.1 13 247 10.3
2005-05-17 08:21:00 51°10.455 2°42.759 250.8 13.2 249 10.2
2005-05-17 08:21:05 51°10.45 2°42.731 251.8 13.3 251 10.3
2005-05-17 08:21:10 51°10.441 2°42.702 253.1 13.3 251 10.2
2005-05-17 08:21:14 51°10.437 2°42.681 252.7 13.3 251 10.4
2005-05-17 08:21:20 51°10.428 2°42.652 251.9 12.9 247 10.1
2005-05-17 08:21:25 51°10.422 2°42.624 249.9 12.9 247 10.2
2005-05-17 08:21:30 51°10.415 2°42.597 252.4 13.3 249 10.2
2005-05-17 08:21:35 51°10.408 2°42.571 252.4 12.9 251 10.2
2005-05-17 08:21:40 51°10.402 2°42.544 251.7 12.9 251 10.2
2005-05-17 08:21:44 51°10.397 2°42.523 253.5 13 250 10.3
2005-05-17 08:21:50 51°10.388 2°42.489 249.6 13.5 245 10.2
2005-05-17 08:21:55 51°10.381 2°42.464 252.5 13.5 245 10.3
2005-05-17 08:22:00 51°10.374 2°42.437 251.2 13.5 245 10.3
2005-05-17 08:22:04 51°10.368 2°42.415 249.6 13.2 250 10.4
2005-05-17 08:22:10 51°10.361 2°42.383 252.5 13.2 250 10.4
2005-05-17 08:22:14 51°10.355 2°42.359 252.2 13 250 10.4
2005-05-17 08:22:20 51°10.348 2°42.329 253.3 13 250 10.4
2005-05-17 08:22:25 51°10.341 2°42.302 252 13.5 247 10.3
2005-05-17 08:22:30 51°10.335 2°42.275 253.2 13.5 247 10.4
2005-05-17 08:22:35 51°10.329 2°42.248 254 13.5 247 10.4
2005-05-17 08:22:40 51°10.323 2°42.221 252.6 13 251 10.4
2005-05-17 08:22:44 51°10.316 2°42.197 252.5 13.3 246 10.3
2005-05-17 08:22:50 51°10.309 2°42.163 251.6 13.3 246 10.4
2005-05-17 08:22:54 51°10.302 2°42.142 252.6 13.3 245 10.4
2005-05-17 08:23:00 51°10.296 2°42.114 252.3 13.2 246 10.4
2005-05-17 08:23:03 51°10.291 2°42.095 252 12.7 246 10.3
2005-05-17 08:23:10 51°10.283 2°42.058 251.8 13.6 251 10.2
2005-05-17 08:23:15 51°10.276 2°42.03 253.1 13.5 249 10.2
2005-05-17 08:23:20 51°10.271 2°42.004 253.6 13 252 10.3
2005-05-17 08:23:24 51°10.265 2°41.983 253.2 13 252 10.4
2005-05-17 08:23:30 51°10.256 2°41.947 251.7 13 247 10.4
2005-05-17 08:23:35 51°10.25 2°41.922 252.2 13.2 247 10.3
2005-05-17 08:23:40 51°10.244 2°41.895 250.7 13.5 250 10.4
2005-05-17 08:23:44 51°10.238 2°41.873 252.7 13.3 247 10.4
2005-05-17 08:23:50 51°10.229 2°41.839 252.5 13.2 247 10.4
2005-05-17 08:23:54 51°10.224 2°41.817 251.2 13 246 10.4
2005-05-17 08:24:00 51°10.217 2°41.787 251.1 13 246 10.4
2005-05-17 08:24:05 51°10.21 2°41.76 252.4 13.4 246 10.3
2005-05-17 08:24:10 51°10.203 2°41.733 252.1 13.4 246 10.5
2005-05-17 08:24:14 51°10.196 2°41.709 251.8 13.1 243 10.5
2005-05-17 08:24:20 51°10.188 2°41.676 250.8 13.4 250 10.5
2005-05-17 08:24:24 51°10.184 2°41.657 252.2 13.4 250 10.5
2005-05-17 08:24:30 51°10.175 2°41.624 251.9 13.4 250 10.5
2005-05-17 08:24:34 51°10.17 2°41.599 251.4 13.5 249 10.6
2005-05-17 08:24:40 51°10.162 2°41.57 252.9 13 250 10.6
2005-05-17 08:24:44 51°10.156 2°41.546 251.3 13 250 10.4
2005-05-17 08:24:50 51°10.149 2°41.515 251.8 13.5 251 10.3
2005-05-17 08:24:55 51°10.143 2°41.486 252.8 13.5 251 10.4
2005-05-17 08:24:59 51°10.138 2°41.462 254.5 13.5 251 10.5
2005-05-17 08:25:05 51°10.13 2°41.433 254.6 12.8 250 10.5
2005-05-17 08:25:10 51°10.123 2°41.402 251.8 12.8 250 10.3
2005-05-17 08:25:14 51°10.118 2°41.38 252.6 12.8 250 10.3
2005-05-17 08:25:19 51°10.112 2°41.353 254 13.2 251 10.5
2005-05-17 08:25:25 51°10.105 2°41.323 252.2 13 247 10.6
2005-05-17 08:25:30 51°10.097 2°41.293 252.5 13.3 250 10.5
2005-05-17 08:25:34 51°10.093 2°41.271 253.1 13.2 250 10.6
2005-05-17 08:25:40 51°10.085 2°41.242 253.8 13.1 252 10.6
2005-05-17 08:25:45 51°10.079 2°41.211 253.2 13.4 251 10.5
2005-05-17 08:25:50 51°10.073 2°41.186 253.5 13.4 251 10.5
2005-05-17 08:25:54 51°10.067 2°41.162 253.8 13.2 249 10.6
2005-05-17 08:26:00 51°10.061 2°41.131 252.8 13.3 252 10.7
2005-05-17 08:26:04 51°10.055 2°41.107 253.3 13.1 250 10.7
2005-05-17 08:26:10 51°10.047 2°41.077 253.5 13.1 247 10.7
2005-05-17 08:26:15 51°10.041 2°41.05 252.8 13.3 249 10.6
2005-05-17 08:26:20 51°10.035 2°41.023 253 13 250 10.7
2005-05-17 08:26:24 51°10.027 2°41 252.5 13 246 10.7
2005-05-17 08:26:30 51°10.022 2°40.965 250.2 13 246 10.7
2005-05-17 08:26:34 51°10.015 2°40.945 254.1 13 246 10.8
2005-05-17 08:26:40 51°10.008 2°40.915 252 13.1 244 10.7
2005-05-17 08:26:45 51°10.002 2°40.888 252.5 13.1 244 10.8
2005-05-17 08:26:50 51°9.995 2°40.86 253.3 13.3 247 10.7
2005-05-17 08:26:54 51°9.99 2°40.836 252.9 13.2 252 10.9
2005-05-17 08:27:00 51°9.982 2°40.807 252.5 12.9 247 10.8
2005-05-17 08:27:05 51°9.975 2°40.777 251.4 12.9 247 10.7
2005-05-17 08:27:10 51°9.97 2°40.752 252.1 13.3 250 10.8
2005-05-17 08:27:14 51°9.964 2°40.728 253.7 13.1 251 10.8
2005-05-17 08:27:20 51°9.958 2°40.698 253.5 13.1 249 10.8
2005-05-17 08:27:25 51°9.951 2°40.671 254.3 13.2 250 10.7
2005-05-17 08:27:30 51°9.945 2°40.64 252.9 13.4 251 10.6
2005-05-17 08:27:35 51°9.939 2°40.615 253.8 13.3 251 10.8
2005-05-17 08:27:40 51°9.933 2°40.588 253.9 13.3 251 10.9
2005-05-17 08:27:45 51°9.925 2°40.561 254.3 13.2 253 10.7
2005-05-17 08:27:50 51°9.92 2°40.533 252.3 13.2 253 10.7
2005-05-17 08:27:54 51°9.914 2°40.508 254.2 13.1 253 10.9
2005-05-17 08:28:00 51°9.908 2°40.478 251.7 13.4 244 10.8
2005-05-17 08:28:05 51°9.902 2°40.45 253.9 13.5 254 11
2005-05-17 08:28:10 51°9.894 2°40.42 254.9 13.2 247 10.9
2005-05-17 08:28:15 51°9.889 2°40.394 252.5 13.2 247 10.9
2005-05-17 08:28:20 51°9.883 2°40.363 255.1 13.2 247 10.9
2005-05-17 08:28:25 51°9.878 2°40.339 256.2 13.3 253 11
2005-05-17 08:28:30 51°9.871 2°40.308 255.1 13.3 253 10.9
2005-05-17 08:28:34 51°9.868 2°40.286 255 13.2 252 11.1
2005-05-17 08:28:40 51°9.859 2°40.257 255.5 13.2 252 10.9
2005-05-17 08:28:44 51°9.855 2°40.231 252.9 13.2 253 11
2005-05-17 08:28:50 51°9.846 2°40.202 253.9 13.2 253 10.9
2005-05-17 08:28:54 51°9.843 2°40.176 251.7 13.3 252 11.1
2005-05-17 08:29:00 51°9.833 2°40.145 254.5 12.9 245 11
2005-05-17 08:29:05 51°9.829 2°40.12 252.5 12.9 245 11
2005-05-17 08:29:10 51°9.822 2°40.093 252.4 13.1 251 11
2005-05-17 08:29:15 51°9.816 2°40.066 253.8 13.1 251 11
2005-05-17 08:29:20 51°9.81 2°40.038 253.3 13.1 251 11.1
2005-05-17 08:29:24 51°9.804 2°40.018 254.2 13.1 251 11.2
2005-05-17 08:29:30 51°9.797 2°39.984 252.3 13.2 251 11
2005-05-17 08:29:34 51°9.793 2°39.959 254.2 13.4 251 11.1
2005-05-17 08:29:40 51°9.785 2°39.93 254.6 13.4 251 11.1
2005-05-17 08:29:45 51°9.779 2°39.903 252.8 13.4 251 11.1
2005-05-17 08:29:50 51°9.773 2°39.875 252.3 13.2 249 11.1
2005-05-17 08:29:54 51°9.767 2°39.85 253.5 13.2 249 11.1
2005-05-17 08:30:00 51°9.761 2°39.819 253.3 13.4 252 11
2005-05-17 08:30:05 51°9.755 2°39.789 254.9 13.4 252 11.1
2005-05-17 08:30:10 51°9.748 2°39.762 254.7 13.4 252 11
2005-05-17 08:30:15 51°9.743 2°39.734 254.4 13.3 252 11.1
2005-05-17 08:30:20 51°9.737 2°39.71 253.7 13.3 252 11.2
2005-05-17 08:30:24 51°9.731 2°39.686 253.3 13 251 11
2005-05-17 08:30:30 51°9.725 2°39.654 251.3 13.4 253 11.1
2005-05-17 08:30:35 51°9.718 2°39.628 254.7 13.2 256 11.2
2005-05-17 08:30:40 51°9.713 2°39.6 253.4 13.2 256 11.2
2005-05-17 08:30:45 51°9.706 2°39.574 253.6 13.1 253 11.2
2005-05-17 08:30:50 51°9.7 2°39.545 252.6 13.3 249 11.1
2005-05-17 08:30:55 51°9.694 2°39.518 253.1 13.3 249 11.3
2005-05-17 08:30:59 51°9.688 2°39.494 253.2 13.2 248 11.3
2005-05-17 08:31:05 51°9.681 2°39.461 252.6 13.2 252 11.1
2005-05-17 08:31:10 51°9.676 2°39.433 253 13.3 248 11.1
2005-05-17 08:31:15 51°9.669 2°39.406 253.6 13.2 250 11.2
2005-05-17 08:31:20 51°9.664 2°39.378 254 13.2 250 11.1
2005-05-17 08:31:25 51°9.657 2°39.355 253.5 13.3 255 11.3
2005-05-17 08:31:30 51°9.651 2°39.324 254.5 13.2 244 11.3
2005-05-17 08:31:35 51°9.645 2°39.299 253 13.2 257 11.3
2005-05-17 08:31:40 51°9.641 2°39.271 254 13.1 248 11.3
2005-05-17 08:31:44 51°9.634 2°39.25 253.5 13.2 247 11.3
2005-05-17 08:31:50 51°9.628 2°39.216 252.7 13.2 252 11.4
2005-05-17 08:31:54 51°9.621 2°39.193 252.5 13.2 247 11.5
2005-05-17 08:32:00 51°9.614 2°39.163 252.1 13.2 247 11.4
2005-05-17 08:32:05 51°9.608 2°39.135 252.5 13 250 11.5
2005-05-17 08:32:10 51°9.602 2°39.108 252.9 13 250 11.4
2005-05-17 08:32:14 51°9.596 2°39.084 252.8 13.2 251 11.4
2005-05-17 08:32:20 51°9.59 2°39.054 252.8 13.2 251 11.5
2005-05-17 08:32:25 51°9.583 2°39.027 252.9 13.2 251 11.6
2005-05-17 08:32:30 51°9.577 2°39 252.2 13.2 250 11.5
2005-05-17 08:32:34 51°9.571 2°38.976 252.5 13.2 250 11.6
2005-05-17 08:32:40 51°9.564 2°38.946 253.8 12.9 252 11.6
2005-05-17 08:32:44 51°9.559 2°38.924 251.4 13.1 247 11.5
2005-05-17 08:32:50 51°9.552 2°38.892 254 13.3 250 11.5
2005-05-17 08:32:55 51°9.546 2°38.865 253.6 12.9 248 11.6
2005-05-17 08:33:00 51°9.54 2°38.838 251.8 13 253 11.5
2005-05-17 08:33:04 51°9.534 2°38.817 252.5 13 247 11.6
2005-05-17 08:33:10 51°9.527 2°38.781 252.5 13 251 11.5
2005-05-17 08:33:15 51°9.52 2°38.754 253.4 13.1 250 11.6
2005-05-17 08:33:20 51°9.515 2°38.73 251.9 13.1 249 11.6
2005-05-17 08:33:24 51°9.51 2°38.705 253.7 13.2 252 11.6
2005-05-17 08:33:30 51°9.502 2°38.675 252.9 13 250 11.6
2005-05-17 08:33:34 51°9.497 2°38.65 251.8 13.2 249 11.6
2005-05-17 08:33:40 51°9.489 2°38.622 254 13.1 253 11.6
2005-05-17 08:33:45 51°9.485 2°38.593 251.5 13.1 253 11.6
2005-05-17 08:33:50 51°9.476 2°38.564 254 13.2 247 11.5
2005-05-17 08:33:54 51°9.473 2°38.541 252.3 13.2 253 11.5
2005-05-17 08:34:00 51°9.465 2°38.512 253.8 13.1 247 11.6
2005-05-17 08:34:04 51°9.46 2°38.487 252.9 13.1 251 11.6
2005-05-17 08:34:10 51°9.452 2°38.457 252.3 13.1 251 11.6
2005-05-17 08:34:14 51°9.447 2°38.433 251.8 13.1 251 11.7
2005-05-17 08:34:20 51°9.44 2°38.403 252.6 13.2 252 11.7
2005-05-17 08:34:25 51°9.434 2°38.375 252.9 13.2 252 11.7
2005-05-17 08:34:30 51°9.427 2°38.346 253.2 13.2 252 11.7
2005-05-17 08:34:35 51°9.421 2°38.321 253.7 13.2 249 11.8
2005-05-17 08:34:40 51°9.415 2°38.29 252.1 13.3 251 11.8
2005-05-17 08:34:45 51°9.41 2°38.265 253.8 13.3 252 11.8
2005-05-17 08:34:50 51°9.404 2°38.238 254.1 13.2 251 11.8
2005-05-17 08:34:54 51°9.398 2°38.214 253.7 13.1 251 11.7
2005-05-17 08:35:00 51°9.392 2°38.183 252.8 13.3 249 11.8
2005-05-17 08:35:04 51°9.385 2°38.159 253.5 13.1 249 11.8
2005-05-17 08:35:10 51°9.377 2°38.126 253.2 13.1 249 11.9
2005-05-17 08:35:14 51°9.372 2°38.104 251.5 13.1 249 11.7
2005-05-17 08:35:20 51°9.366 2°38.073 252.2 13.5 254 11.7
2005-05-17 08:35:25 51°9.36 2°38.046 255.4 13.1 250 11.8
2005-05-17 08:35:30 51°9.354 2°38.015 253.4 13.2 252 11.7
2005-05-17 08:35:35 51°9.349 2°37.986 254.2 13.4 253 11.8
2005-05-17 08:35:40 51°9.343 2°37.959 255.6 13.4 253 11.7
2005-05-17 08:35:45 51°9.337 2°37.934 255.2 13.2 252 11.6
2005-05-17 08:35:50 51°9.331 2°37.904 253.9 13.2 252 11.7
2005-05-17 08:35:55 51°9.326 2°37.879 253.2 13.3 248 11.7
2005-05-17 08:35:59 51°9.319 2°37.854 253.2 13.3 253 11.8
2005-05-17 08:36:04 51°9.314 2°37.829 253.4 13.2 250 11.7
2005-05-17 08:36:10 51°9.306 2°37.793 253.9 13.3 252 11.6
2005-05-17 08:36:14 51°9.302 2°37.771 253.3 13.1 255 11.8
2005-05-17 08:36:20 51°9.294 2°37.741 254.6 13 252 11.8
2005-05-17 08:36:24 51°9.29 2°37.716 252.9 13 252 11.8
2005-05-17 08:36:30 51°9.282 2°37.687 253.8 13.2 253 11.7
2005-05-17 08:36:35 51°9.277 2°37.659 252.8 13.3 249 11.8
2005-05-17 08:36:40 51°9.269 2°37.632 253.3 13.3 249 11.8
2005-05-17 08:36:45 51°9.263 2°37.601 252.7 13.2 248 11.7
2005-05-17 08:36:50 51°9.257 2°37.574 252.9 13.2 248 11.7
2005-05-17 08:36:55 51°9.251 2°37.549 253.8 13.4 248 11.7
2005-05-17 08:37:00 51°9.246 2°37.521 253.4 13.4 248 11.7
2005-05-17 08:37:05 51°9.238 2°37.491 255 13.3 246 11.7
2005-05-17 08:37:10 51°9.234 2°37.464 252.1 13.3 246 11.7
2005-05-17 08:37:14 51°9.228 2°37.444 255.4 12.5 247 11.7
2005-05-17 08:37:20 51°9.224 2°37.415 253.9 12.5 247 11.7
2005-05-17 08:37:24 51°9.218 2°37.394 256.2 12.5 247 11.8
2005-05-17 08:37:30 51°9.213 2°37.365 254.3 11.5 249 11.8
2005-05-17 08:37:34 51°9.208 2°37.347 253.5 11.3 248 11.8
2005-05-17 08:37:40 51°9.201 2°37.319 253.2 11.1 249 11.8
2005-05-17 08:37:44 51°9.197 2°37.303 250.5 11 250 11.9
2005-05-17 08:37:50 51°9.189 2°37.275 251.1 10.9 249 11.9
2005-05-17 08:37:55 51°9.185 2°37.253 250.7 10.9 249 11.9
2005-05-17 08:38:00 51°9.179 2°37.236 251.8 10.9 249 11.7
2005-05-17 08:38:05 51°9.176 2°37.216 251.2 10 245 11.8
2005-05-17 08:38:10 51°9.171 2°37.198 252.8 8.9 248 11.8
2005-05-17 08:38:14 51°9.168 2°37.181 253.3 8.8 251 11.7
2005-05-17 08:38:20 51°9.164 2°37.163 254.5 8.4 252 11.8
2005-05-17 08:38:24 51°9.162 2°37.15 255.5 7.7 252 11.8
2005-05-17 08:38:30 51°9.159 2°37.132 257.5 7.1 257 11.8
2005-05-17 08:38:35 51°9.157 2°37.118 258.4 6.7 255 11.9
2005-05-17 08:38:40 51°9.156 2°37.106 261.7 6 262 11.9
2005-05-17 08:38:44 51°9.155 2°37.096 264.3 5.4 266 12
2005-05-17 08:38:50 51°9.155 2°37.082 268.1 5 268 11.9
2005-05-17 08:38:54 51°9.156 2°37.074 273.1 4.5 271 12
2005-05-17 08:39:00 51°9.156 2°37.065 277.2 4.5 271 12
2005-05-17 08:39:04 51°9.157 2°37.059 281 3.6 282 12.1
2005-05-17 08:39:10 51°9.158 2°37.048 283.6 3.4 280 12.1
2005-05-17 08:39:14 51°9.159 2°37.044 287.8 3.3 283 12.1
2005-05-17 08:39:20 51°9.16 2°37.038 290.5 2.9 289 12.2
2005-05-17 08:39:25 51°9.161 2°37.032 294.3 2.4 290 12.2
2005-05-17 08:39:30 51°9.162 2°37.029 297.5 2.4 290 12.2
2005-05-17 08:39:35 51°9.163 2°37.027 300.5 1.7 285 12.3
2005-05-17 08:39:39 51°9.164 2°37.025 303.9 1.2 317 12.3
2005-05-17 08:39:44 51°9.164 2°37.026 308.8 0.2 337 12.2
2005-05-17 08:39:49 51°9.163 2°37.026 312.2 0.7 201 12.3
2005-05-17 08:39:54 51°9.163 2°37.026 313.3 0.2 173 12.3
2005-05-17 08:40:00 51°9.162 2°37.026 315.1 0.2 173 12.2
2005-05-17 08:40:05 51°9.162 2°37.026 315.4 0.3 176 12.3
2005-05-17 08:40:10 51°9.162 2°37.026 315.2 0.4 175 12.3
2005-05-17 08:40:14 51°9.161 2°37.026 315.1 0.4 174 12.3
2005-05-17 08:40:20 51°9.161 2°37.026 314.3 0.3 177 -999
2005-05-17 08:40:25 51°9.161 2°37.026 313.8 0.4 195 -999
2005-05-17 08:40:30 51°9.16 2°37.026 312.2 0.3 146 -999
2005-05-17 08:40:36 51°9.16 2°37.026 311.8 0.3 146 -999
2005-05-17 08:40:40 51°9.159 2°37.026 310.2 0.1 138 5.2
2005-05-17 08:40:45 51°9.159 2°37.026 309.9 0.5 196 12.3
2005-05-17 08:40:50 51°9.158 2°37.026 308 0.5 196 12.3
2005-05-17 08:40:54 51°9.158 2°37.026 306.5 0.5 196 12.2
2005-05-17 08:41:00 51°9.157 2°37.026 305.6 0.5 184 12.1
2005-05-17 08:41:04 51°9.156 2°37.026 303.9 0.6 199 12.2
2005-05-17 08:41:10 51°9.155 2°37.025 302.8 0.4 179 12.1
2005-05-17 08:41:15 51°9.155 2°37.025 302.2 0.6 198 12.1
2005-05-17 08:41:20 51°9.155 2°37.025 300.6 0.5 206 12.1
2005-05-17 08:41:24 51°9.154 2°37.024 299.7 0.5 193 12.1
2005-05-17 08:41:30 51°9.154 2°37.024 299.4 0.5 193 12.1
2005-05-17 08:41:34 51°9.154 2°37.024 298.6 0.6 197 12.1
2005-05-17 08:41:40 51°9.153 2°37.025 297.7 0.4 188 12.1
2005-05-17 08:41:44 51°9.153 2°37.024 295.9 0.4 188 12
2005-05-17 08:41:50 51°9.152 2°37.024 296.1 0.4 188 12
2005-05-17 08:41:54 51°9.151 2°37.024 294.6 0.4 188 12.1
2005-05-17 08:42:00 51°9.151 2°37.023 293.2 -999 256 12
2005-05-17 08:42:05 51°9.15 2°37.023 292.8 0.9 193 12.1
2005-05-17 08:42:10 51°9.149 2°37.023 291.5 0.9 193 12
2005-05-17 08:42:14 51°9.149 2°37.023 290.2 1.2 193 12.2
2005-05-17 08:42:20 51°9.148 2°37.022 289.4 0.3 206 12.1
2005-05-17 08:42:23 51°9.148 2°37.023 288.7 0.6 197 12
2005-05-17 08:42:30 51°9.147 2°37.023 287.4 0.2 209 12.1
2005-05-17 08:42:34 51°9.146 2°37.022 286.6 0.2 209 12.1
2005-05-17 08:42:40 51°9.146 2°37.022 286.4 0.5 200 12.1
2005-05-17 08:42:45 51°9.146 2°37.022 285.7 1 194 12.1
2005-05-17 08:42:50 51°9.145 2°37.022 285.3 0.1 324 12.1
2005-05-17 08:42:54 51°9.144 2°37.022 284.9 1.1 198 12
2005-05-17 08:43:00 51°9.143 2°37.02 284 0.3 351 11.9
2005-05-17 08:43:05 51°9.143 2°37.021 283.4 0.3 351 11.8
2005-05-17 08:43:10 51°9.142 2°37.02 282.6 0.3 351 11.8
2005-05-17 08:43:15 51°9.142 2°37.02 281.3 0.6 197 11.9
2005-05-17 08:43:20 51°9.142 2°37.019 280.6 0.6 197 12
2005-05-17 08:43:24 51°9.141 2°37.019 279.9 0.6 196 12
2005-05-17 08:43:30 51°9.14 2°37.019 279.4 0.2 282 12
2005-05-17 08:43:34 51°9.14 2°37.018 278.7 0.2 282 12.1
2005-05-17 08:43:39 51°9.139 2°37.018 278.2 0.3 215 12
2005-05-17 08:43:44 51°9.139 2°37.017 278 0.6 203 12.1
2005-05-17 08:43:50 51°9.138 2°37.017 277.6 0.4 223 12.1
2005-05-17 08:43:55 51°9.138 2°37.017 278.1 0.5 194 12
2005-05-17 08:44:00 51°9.138 2°37.016 278.1 0.2 242 11.9
2005-05-17 08:44:04 51°9.138 2°37.016 277.9 0.2 234 11.9
2005-05-17 08:44:10 51°9.137 2°37.015 278.2 0.2 237 11.9
2005-05-17 08:44:14 51°9.137 2°37.014 277.9 0.4 219 12
2005-05-17 08:44:20 51°9.136 2°37.014 278.8 0.5 212 12
2005-05-17 08:44:24 51°9.136 2°37.014 278.6 0.3 227 12
2005-05-17 08:44:30 51°9.135 2°37.012 278.8 0.3 227 11.9
2005-05-17 08:44:35 51°9.134 2°37.012 278.7 0.4 218 11.9
2005-05-17 08:44:40 51°9.135 2°37.011 279.8 0.4 218 11.9
2005-05-17 08:44:44 51°9.133 2°37.011 280.5 0.7 208 11.9
2005-05-17 08:44:50 51°9.133 2°37.01 281 0.7 208 11.8
2005-05-17 08:44:54 51°9.133 2°37.01 281.5 0.5 213 11.9
2005-05-17 08:45:00 51°9.132 2°37.009 281.2 0.6 217 11.9
2005-05-17 08:45:05 51°9.132 2°37.009 282.2 0.6 217 11.9
2005-05-17 08:45:10 51°9.131 2°37.008 282.3 0.5 210 11.9
2005-05-17 08:45:15 51°9.131 2°37.008 282.4 0.3 276 11.8
2005-05-17 08:45:20 51°9.13 2°37.007 283.6 0.3 276 11.9
2005-05-17 08:45:25 51°9.13 2°37.006 283.3 0.3 276 12
2005-05-17 08:45:30 51°9.129 2°37.006 283.7 0.5 220 11.9
2005-05-17 08:45:34 51°9.129 2°37.005 285.1 0.4 214 11.9
2005-05-17 08:45:40 51°9.128 2°37.005 284.3 0.6 221 11.8
2005-05-17 08:45:44 51°9.129 2°37.004 285 0.3 233 11.7
2005-05-17 08:45:50 51°9.128 2°37.003 284.8 0.7 207 11.8
2005-05-17 08:45:54 51°9.128 2°37.003 285.2 0.5 217 11.9
2005-05-17 08:46:00 51°9.127 2°37.002 285.2 0.3 287 11.9
2005-05-17 08:46:04 51°9.127 2°37.001 285.9 0.4 225 11.9
2005-05-17 08:46:10 51°9.125 2°37.001 285.3 0.4 225 11.7
2005-05-17 08:46:14 51°9.126 2°37 285.5 0.3 238 11.7
2005-05-17 08:46:20 51°9.125 2°36.999 284.7 0.5 229 11.6
2005-05-17 08:46:25 51°9.125 2°36.999 284.7 0.6 212 11.7
2005-05-17 08:46:30 51°9.124 2°36.998 284.8 0.9 209 11.8
2005-05-17 08:46:35 51°9.124 2°36.997 285.5 0.3 292 11.8
2005-05-17 08:46:40 51°9.123 2°36.996 285.5 0.3 292 11.8
2005-05-17 08:46:45 51°9.123 2°36.996 285.9 0.2 274 11.9
2005-05-17 08:46:50 51°9.122 2°36.995 286.3 0.2 274 12
2005-05-17 08:46:54 51°9.122 2°36.995 286.3 0.2 288 11.8
2005-05-17 08:47:00 51°9.122 2°36.994 286.8 0.8 208 11.9
2005-05-17 08:47:05 51°9.121 2°36.993 286.4 0.2 273 11.8
2005-05-17 08:47:10 51°9.121 2°36.993 287.4 0.3 236 11.8
2005-05-17 08:47:14 51°9.121 2°36.992 287.4 0.3 236 11.8
2005-05-17 08:47:20 51°9.12 2°36.991 287.3 0.6 206 11.9
2005-05-17 08:47:25 51°9.119 2°36.99 287.8 0.2 277 11.8
2005-05-17 08:47:30 51°9.12 2°36.99 288.1 0.2 277 11.8
2005-05-17 08:47:34 51°9.119 2°36.989 287.3 0.2 309 11.8
2005-05-17 08:47:40 51°9.119 2°36.989 287.8 0.2 309 11.8
2005-05-17 08:47:44 51°9.118 2°36.988 288.1 0.4 225 11.8
2005-05-17 08:47:50 51°9.118 2°36.987 287.8 0.5 229 11.9
2005-05-17 08:47:55 51°9.117 2°36.987 287.7 0.5 226 11.9
2005-05-17 08:48:00 51°9.117 2°36.987 287.7 0.4 231 11.7
2005-05-17 08:48:04 51°9.116 2°36.986 287.4 0.5 221 11.7
2005-05-17 08:48:10 51°9.116 2°36.984 286.7 0.2 278 11.6
2005-05-17 08:48:14 51°9.116 2°36.984 287.2 0.2 278 11.6
2005-05-17 08:48:20 51°9.115 2°36.983 286.2 0.2 278 11.7
2005-05-17 08:48:24 51°9.115 2°36.983 286.7 0.2 284 11.7
2005-05-17 08:48:30 51°9.114 2°36.982 286.6 0.8 211 11.8
2005-05-17 08:48:34 51°9.114 2°36.982 286.5 0.3 295 11.8
2005-05-17 08:48:40 51°9.114 2°36.981 287.1 0.3 269 11.8
2005-05-17 08:48:44 51°9.114 2°36.981 286.9 0.3 224 11.8
2005-05-17 08:48:50 51°9.113 2°36.98 287.6 0.6 213 11.7
2005-05-17 08:48:55 51°9.113 2°36.979 287.5 0.6 213 11.8
2005-05-17 08:49:00 51°9.112 2°36.979 287.4 0.6 213 11.8
2005-05-17 08:49:04 51°9.113 2°36.978 288 0.3 245 11.7
2005-05-17 08:49:10 51°9.112 2°36.977 287.9 0.3 245 11.8
2005-05-17 08:49:14 51°9.112 2°36.976 288 0.5 253 11.7
2005-05-17 08:49:20 51°9.112 2°36.974 288.5 0.6 244 11.7
2005-05-17 08:49:25 51°9.112 2°36.973 288.6 0.7 280 11.7
2005-05-17 08:49:30 51°9.112 2°36.971 289.6 1 262 11.7
2005-05-17 08:49:35 51°9.112 2°36.967 291 1.1 286 11.7
2005-05-17 08:49:40 51°9.113 2°36.965 293 1.3 281 11.7
2005-05-17 08:49:45 51°9.114 2°36.962 294.8 1.6 285 11.7
2005-05-17 08:49:50 51°9.115 2°36.957 297.9 1.7 286 11.7
2005-05-17 08:49:54 51°9.116 2°36.954 301.2 1.8 298 11.7
2005-05-17 08:50:00 51°9.117 2°36.95 303.6 1.8 298 11.8
2005-05-17 08:50:04 51°9.119 2°36.947 307.4 2 303 11.9
2005-05-17 08:50:10 51°9.121 2°36.943 310.6 2.3 298 12
2005-05-17 08:50:14 51°9.122 2°36.939 313.6 2.3 311 12
2005-05-17 08:50:20 51°9.125 2°36.935 317 2.3 305 11.9
2005-05-17 08:50:25 51°9.127 2°36.93 319.4 2.4 312 11.8
2005-05-17 08:50:30 51°9.13 2°36.926 322.1 2.5 316 11.9
2005-05-17 08:50:35 51°9.132 2°36.923 324.4 2.5 316 12
2005-05-17 08:50:40 51°9.135 2°36.919 327 2.4 322 12
2005-05-17 08:50:45 51°9.138 2°36.916 329.6 2.4 322 12.2
2005-05-17 08:50:50 51°9.141 2°36.914 333.8 2.5 327 12.2
2005-05-17 08:50:55 51°9.144 2°36.911 336.2 2.5 327 12.3
2005-05-17 08:51:00 51°9.147 2°36.909 341.1 2.5 327 12.4
2005-05-17 08:51:05 51°9.15 2°36.908 345.4 2.5 327 12.5
2005-05-17 08:51:10 51°9.154 2°36.906 349.2 2.5 347 12.6
2005-05-17 08:51:14 51°9.157 2°36.905 353.7 2.5 347 12.6
2005-05-17 08:51:20 51°9.161 2°36.905 357.9 2.6 354 12.7
2005-05-17 08:51:24 51°9.163 2°36.905 1.2 2.6 1 12.8
2005-05-17 08:51:30 51°9.168 2°36.906 5.8 2.6 1 12.7
2005-05-17 08:51:34 51°9.171 2°36.906 10.8 2.6 7 12.7
2005-05-17 08:51:40 51°9.175 2°36.908 15.9 2.6 15 12.7
2005-05-17 08:51:45 51°9.178 2°36.91 21 2.6 15 12.7
2005-05-17 08:51:50 51°9.181 2°36.913 25.6 2.6 26 12.9
2005-05-17 08:51:54 51°9.184 2°36.915 29.7 2.6 24 12.8
2005-05-17 08:52:00 51°9.188 2°36.918 31.9 2.7 29 12.9